createdAt,value
2022-10-23T00:01:55.651Z,101313.94
2022-10-23T00:04:26.287Z,101310.44
2022-10-23T00:06:53.285Z,101290.41
2022-10-23T00:09:24.068Z,101298.25
2022-10-23T00:11:52.463Z,101299.09
2022-10-23T00:14:23.143Z,101302.53
2022-10-23T00:16:50.574Z,101301.63
2022-10-23T00:19:17.840Z,101296.38
2022-10-23T00:21:44.996Z,101304.22
2022-10-23T00:24:12.909Z,101297.34
2022-10-23T00:26:40.625Z,101309.47
2022-10-23T00:29:08.577Z,101307.69
2022-10-23T00:31:36.100Z,101299.03
2022-10-23T00:34:04.097Z,101318.97
2022-10-23T00:36:31.161Z,101300.78
2022-10-23T00:38:58.175Z,101306.19
2022-10-23T00:41:29.627Z,101295.84
2022-10-23T00:44:09.515Z,101295.00
2022-10-23T00:46:38.295Z,101293.25
2022-10-23T00:49:07.151Z,101292.38
2022-10-23T00:51:40.906Z,101292.38
2022-10-23T00:54:25.292Z,101290.63
2022-10-23T00:56:59.239Z,101295.00
2022-10-23T00:59:27.105Z,101284.59
2022-10-23T01:01:54.538Z,101290.75
2022-10-23T01:04:22.935Z,101282.03
2022-10-23T01:07:07.859Z,101291.31
2022-10-23T01:09:53.470Z,101277.38
2022-10-23T01:12:36.295Z,101273.78
2022-10-23T01:15:38.540Z,101291.25
2022-10-23T01:18:13.271Z,101295.47
2022-10-23T01:20:50.103Z,101296.25
2022-10-23T01:23:44.718Z,101284.91
2022-10-23T01:26:26.558Z,101275.19
2022-10-23T01:29:03.746Z,101281.34
2022-10-23T01:31:37.415Z,101281.41
2022-10-23T01:34:13.609Z,101279.56
2022-10-23T01:36:43.164Z,101278.56
2022-10-23T01:39:21.519Z,101280.31
2022-10-23T01:41:57.235Z,101278.56
2022-10-23T01:44:49.214Z,101267.53
2022-10-23T01:49:51.113Z,101260.59
2022-10-23T01:52:19.852Z,101254.50
2022-10-23T01:54:49.922Z,101263.19
2022-10-23T01:57:20.751Z,101251.03
2022-10-23T01:59:53.378Z,101249.31
2022-10-23T02:02:22.835Z,101253.53
2022-10-23T02:04:55.236Z,101248.13
2022-10-23T02:07:22.824Z,101243.84
2022-10-23T02:09:50.125Z,101236.03
2022-10-23T02:12:41.668Z,101232.56
2022-10-23T02:15:14.367Z,101227.38
2022-10-23T02:18:03.129Z,101221.31
2022-10-23T02:20:38.455Z,101219.53
2022-10-23T02:23:25.556Z,101217.59
2022-10-23T02:26:21.816Z,101217.75
2022-10-23T02:28:54.960Z,101219.44
2022-10-23T02:31:23.300Z,101208.84
2022-10-23T02:33:50.633Z,101204.56
2022-10-23T02:36:19.151Z,101204.59
2022-10-23T02:38:46.459Z,101196.84
2022-10-23T02:41:31.057Z,101190.72
2022-10-23T02:44:09.670Z,101189.06
2022-10-23T02:46:50.129Z,101196.03
2022-10-23T02:49:49.070Z,101200.22
2022-10-23T02:52:40.700Z,101203.63
2022-10-23T02:55:17.578Z,101202.69
2022-10-23T02:57:56.671Z,101198.28
2022-10-23T03:00:24.654Z,101202.44
2022-10-23T03:02:59.804Z,101198.91
2022-10-23T03:05:35.567Z,101188.44
2022-10-23T03:08:04.906Z,101185.00
2022-10-23T03:10:31.890Z,101190.22
2022-10-23T03:12:58.894Z,101182.31
2022-10-23T03:15:25.875Z,101177.09
2022-10-23T03:17:52.895Z,101174.41
2022-10-23T03:20:19.984Z,101183.16
2022-10-23T03:22:46.990Z,101167.63
2022-10-23T03:25:14.303Z,101159.00
2022-10-23T03:27:41.327Z,101167.63
2022-10-23T03:30:08.994Z,101170.31
2022-10-23T03:32:36.017Z,101172.91
2022-10-23T03:35:03.453Z,101172.06
2022-10-23T03:37:30.795Z,101162.56
2022-10-23T03:39:57.795Z,101162.63
2022-10-23T03:42:25.388Z,101161.75
2022-10-23T03:44:52.424Z,101157.47
2022-10-23T03:47:20.958Z,101148.78
2022-10-23T03:49:47.986Z,101150.34
2022-10-23T03:52:15.248Z,101146.09
2022-10-23T03:54:42.299Z,101140.00
2022-10-23T03:57:09.296Z,101136.44
2022-10-23T03:59:36.332Z,101134.75
2022-10-23T04:02:03.514Z,101124.41
2022-10-23T04:04:30.852Z,101130.41
2022-10-23T04:06:57.849Z,101114.03
2022-10-23T04:09:25.022Z,101109.72
2022-10-23T04:11:52.014Z,101103.69
2022-10-23T04:14:18.977Z,101097.50
2022-10-23T04:16:45.984Z,101092.41
2022-10-23T04:19:13.061Z,101094.22
2022-10-23T04:21:40.039Z,101090.81
2022-10-23T04:24:07.276Z,101093.44
2022-10-23T04:26:34.505Z,101085.72
2022-10-23T04:29:01.544Z,101070.19
2022-10-23T04:31:28.588Z,101076.34
2022-10-23T04:33:55.785Z,101074.59
2022-10-23T04:36:22.989Z,101065.16
2022-10-23T04:38:50.237Z,101063.25
2022-10-23T04:41:17.275Z,101062.38
2022-10-23T04:43:44.291Z,101062.22
2022-10-23T04:46:11.395Z,101055.53
2022-10-23T04:48:41.662Z,101064.22
2022-10-23T04:51:10.018Z,101057.22
2022-10-23T04:53:38.823Z,101068.47
2022-10-23T04:56:06.382Z,101058.78
2022-10-23T04:58:33.387Z,101066.81
2022-10-23T05:01:03.598Z,101054.63
2022-10-23T05:03:33.917Z,101052.19
2022-10-23T05:06:01.587Z,101047.97
2022-10-23T05:08:29.045Z,101051.41
2022-10-23T05:10:56.017Z,101048.78
2022-10-23T05:13:23.774Z,101045.28
2022-10-23T05:15:51.796Z,101054.91
2022-10-23T05:18:31.531Z,101040.25
2022-10-23T05:21:07.171Z,101045.53
2022-10-23T05:23:37.210Z,101040.41
2022-10-23T05:26:05.006Z,101042.19
2022-10-23T05:28:32.181Z,101043.13
2022-10-23T05:31:03.103Z,101056.16
2022-10-23T05:33:32.718Z,101046.63
2022-10-23T05:36:03.725Z,101026.69
2022-10-23T05:38:33.570Z,101035.47
2022-10-23T05:41:03.817Z,101035.56
2022-10-23T05:43:33.684Z,101038.16
2022-10-23T05:46:06.057Z,101038.28
2022-10-23T05:48:35.382Z,101029.75
2022-10-23T05:51:04.758Z,101035.81
2022-10-23T05:53:32.004Z,101019.41
2022-10-23T05:56:08.677Z,101019.41
2022-10-23T05:58:36.269Z,101030.88
2022-10-23T06:01:11.398Z,101029.16
2022-10-23T06:03:39.398Z,101015.34
2022-10-23T06:06:07.412Z,101023.25
2022-10-23T06:08:35.153Z,101025.94
2022-10-23T06:11:10.072Z,101009.38
2022-10-23T06:13:39.493Z,101018.16
2022-10-23T06:16:21.111Z,101018.16
2022-10-23T06:18:48.517Z,101010.47
2022-10-23T06:21:16.023Z,101017.41
2022-10-23T06:23:44.785Z,101003.66
2022-10-23T06:26:14.079Z,101008.06
2022-10-23T06:28:41.935Z,100998.53
2022-10-23T06:31:11.473Z,100996.88
2022-10-23T06:33:39.123Z,100993.44
2022-10-23T06:36:08.253Z,100995.13
2022-10-23T06:38:37.599Z,100986.53
2022-10-23T06:41:05.163Z,100986.53
2022-10-23T06:43:32.160Z,100981.47
2022-10-23T06:46:04.264Z,100984.00
2022-10-23T06:48:32.269Z,100978.91
2022-10-23T06:51:03.597Z,100983.31
2022-10-23T06:53:31.675Z,100973.84
2022-10-23T06:56:03.633Z,100973.72
2022-10-23T06:58:32.019Z,100971.97
2022-10-23T07:01:04.792Z,100973.81
2022-10-23T07:03:32.463Z,100960.94
2022-10-23T07:06:03.918Z,100952.16
2022-10-23T07:08:34.053Z,100960.88
2022-10-23T07:11:09.286Z,100959.28
2022-10-23T07:13:38.548Z,100960.19
2022-10-23T07:16:14.917Z,100963.69
2022-10-23T07:18:42.455Z,100956.78
2022-10-23T07:21:10.001Z,100963.84
2022-10-23T07:23:37.620Z,100975.06
2022-10-23T07:26:10.401Z,100969.03
2022-10-23T07:28:38.900Z,100956.09
2022-10-23T07:31:05.910Z,100957.03
2022-10-23T07:33:33.159Z,100962.28
2022-10-23T07:36:02.611Z,100964.94
2022-10-23T07:38:32.031Z,100961.56
2022-10-23T07:41:02.715Z,100956.44
2022-10-23T07:46:02.946Z,100950.59
2022-10-23T07:48:30.429Z,100953.25
2022-10-23T07:51:01.399Z,100942.91
2022-10-23T07:53:28.905Z,100934.25
2022-10-23T07:55:58.093Z,100939.59
2022-10-23T07:58:26.808Z,100941.34
2022-10-23T08:01:04.137Z,100933.63
2022-10-23T08:03:34.206Z,100923.28
2022-10-23T08:06:01.822Z,100938.06
2022-10-23T08:08:28.835Z,100934.66
2022-10-23T08:10:56.220Z,100927.75
2022-10-23T08:13:23.621Z,100930.41
2022-10-23T08:15:52.715Z,100919.13
2022-10-23T08:18:19.918Z,100917.50
2022-10-23T08:20:48.657Z,100923.63
2022-10-23T08:23:18.892Z,100928.00
2022-10-23T08:25:46.786Z,100919.41
2022-10-23T08:28:15.662Z,100909.91
2022-10-23T08:30:42.796Z,100915.16
2022-10-23T08:33:09.904Z,100922.97
2022-10-23T08:35:37.741Z,100914.31
2022-10-23T08:38:05.701Z,100910.88
2022-10-23T08:40:34.864Z,100910.97
2022-10-23T08:43:10.769Z,100905.81
2022-10-23T08:45:47.568Z,100883.28
2022-10-23T08:48:35.504Z,100885.03
2022-10-23T08:51:29.290Z,100877.22
2022-10-23T08:54:01.518Z,100871.22
2022-10-23T08:56:37.813Z,100865.22
2022-10-23T08:59:34.321Z,100866.06
2022-10-23T09:02:13.261Z,100866.16
2022-10-23T09:04:42.522Z,100871.34
2022-10-23T09:07:24.538Z,100875.78
2022-10-23T09:10:13.263Z,100861.13
2022-10-23T09:12:41.727Z,100851.63
2022-10-23T09:15:20.033Z,100856.00
2022-10-23T09:17:48.095Z,100851.69
2022-10-23T09:20:35.246Z,100843.03
2022-10-23T09:23:07.773Z,100838.72
2022-10-23T09:25:38.704Z,100842.22
2022-10-23T09:28:06.027Z,100833.59
2022-10-23T09:30:38.636Z,100831.88
2022-10-23T09:33:19.813Z,100825.78
2022-10-23T09:36:05.860Z,100829.25
2022-10-23T09:38:34.604Z,100831.84
2022-10-23T09:41:17.213Z,100826.66
2022-10-23T09:43:44.258Z,100835.34
2022-10-23T09:46:12.059Z,100827.50
2022-10-23T09:48:42.134Z,100815.38
2022-10-23T09:51:19.443Z,100825.78
2022-10-23T09:53:53.697Z,100813.66
2022-10-23T09:56:26.200Z,100817.97
2022-10-23T09:59:15.772Z,100813.63
2022-10-23T10:02:03.976Z,100804.09
2022-10-23T10:04:40.487Z,100804.13
2022-10-23T10:07:22.829Z,100804.13
2022-10-23T10:09:50.330Z,100804.13
2022-10-23T10:12:35.750Z,100800.69
2022-10-23T10:15:22.710Z,100793.75
2022-10-23T10:18:07.116Z,100798.09
2022-10-23T10:20:56.692Z,100796.38
2022-10-23T10:23:36.891Z,100785.97
2022-10-23T10:26:06.508Z,100785.13
2022-10-23T10:28:45.611Z,100782.53
2022-10-23T10:31:37.532Z,100779.06
2022-10-23T10:34:30.498Z,100769.50
2022-10-23T10:37:06.037Z,100762.59
2022-10-23T10:39:41.943Z,100747.81
2022-10-23T10:42:39.610Z,100751.28
2022-10-23T10:45:24.517Z,100743.47
2022-10-23T10:48:03.253Z,100739.13
2022-10-23T10:50:45.399Z,100733.06
2022-10-23T10:53:22.260Z,100732.22
2022-10-23T10:55:53.493Z,100718.28
2022-10-23T10:58:30.507Z,100694.00
2022-10-23T11:01:01.831Z,100696.63
2022-10-23T11:03:46.231Z,100692.25
2022-10-23T11:06:18.773Z,100684.47
2022-10-23T11:08:56.541Z,100687.91
2022-10-23T11:11:37.603Z,100686.19
2022-10-23T11:14:04.695Z,100694.00
2022-10-23T11:16:37.530Z,100694.00
2022-10-23T11:19:11.362Z,100680.97
2022-10-23T11:22:09.879Z,100686.19
2022-10-23T11:25:02.595Z,100681.84
2022-10-23T11:27:53.753Z,100678.38
2022-10-23T11:31:07.016Z,100678.34
2022-10-23T11:33:55.081Z,100665.31
2022-10-23T11:36:43.584Z,100654.00
2022-10-23T11:39:39.273Z,100645.28
2022-10-23T11:42:06.258Z,100635.69
2022-10-23T11:44:46.284Z,100639.97
2022-10-23T11:47:38.945Z,100635.59
2022-10-23T11:50:06.809Z,100638.16
2022-10-23T11:52:45.461Z,100618.06
2022-10-23T11:55:19.013Z,100618.88
2022-10-23T11:58:10.385Z,100610.09
2022-10-23T12:00:51.869Z,100614.41
2022-10-23T12:03:24.382Z,100604.78
2022-10-23T12:06:01.458Z,100603.00
2022-10-23T12:08:32.418Z,100581.25
2022-10-23T12:11:00.395Z,100582.91
2022-10-23T12:13:36.319Z,100601.16
2022-10-23T12:16:05.859Z,100598.56
2022-10-23T12:18:33.474Z,100594.16
2022-10-23T12:21:03.255Z,100595.91
2022-10-23T12:23:49.297Z,100582.81
2022-10-23T12:26:45.771Z,100581.03
2022-10-23T12:29:28.320Z,100573.19
2022-10-23T12:32:04.299Z,100557.53
2022-10-23T12:34:53.399Z,100554.88
2022-10-23T12:37:49.364Z,100544.41
2022-10-23T12:40:16.486Z,100551.34
2022-10-23T12:42:52.741Z,100554.81
2022-10-23T12:45:24.654Z,100533.16
2022-10-23T12:47:52.335Z,100546.09
2022-10-23T12:50:25.122Z,100540.91
2022-10-23T12:53:01.629Z,100533.06
2022-10-23T12:55:51.515Z,100532.16
2022-10-23T12:58:24.399Z,100531.25
2022-10-23T13:00:54.353Z,100528.59
2022-10-23T13:03:24.375Z,100513.75
2022-10-23T13:05:54.128Z,100499.00
2022-10-23T13:08:23.043Z,100495.44
2022-10-23T13:10:50.616Z,100497.13
2022-10-23T13:13:23.051Z,100489.31
2022-10-23T13:15:50.510Z,100482.34
2022-10-23T13:18:18.401Z,100489.28
2022-10-23T13:20:51.197Z,100493.63
2022-10-23T13:23:24.883Z,100487.50
2022-10-23T13:25:55.967Z,100483.06
2022-10-23T13:28:27.393Z,100476.06
2022-10-23T13:31:06.365Z,100464.72
2022-10-23T13:33:39.397Z,100469.97
2022-10-23T13:36:16.558Z,100451.69
2022-10-23T13:39:00.770Z,100446.44
2022-10-23T13:41:31.697Z,100442.06
2022-10-23T13:43:58.711Z,100437.69
2022-10-23T13:46:25.750Z,100429.72
2022-10-23T13:48:53.241Z,100431.34
2022-10-23T13:51:23.524Z,100420.06
2022-10-23T13:53:51.495Z,100410.41
2022-10-23T13:56:21.402Z,100405.13
2022-10-23T13:58:49.283Z,100395.50
2022-10-23T14:01:26.637Z,100400.63
2022-10-23T14:03:54.909Z,100401.47
2022-10-23T14:06:22.109Z,100398.88
2022-10-23T14:08:49.187Z,100400.53
2022-10-23T14:11:18.952Z,100396.16
2022-10-23T14:13:47.703Z,100397.03
2022-10-23T14:16:16.336Z,100388.34
2022-10-23T14:18:44.052Z,100382.25
2022-10-23T14:21:19.902Z,100379.69
2022-10-23T14:23:47.925Z,100383.19
2022-10-23T14:26:21.944Z,100381.38
2022-10-23T14:28:51.473Z,100374.38
2022-10-23T14:31:18.644Z,100375.19
2022-10-23T14:33:46.325Z,100371.59
2022-10-23T14:36:13.469Z,100378.34
2022-10-23T14:38:40.638Z,100379.06
2022-10-23T14:41:16.713Z,100388.44
2022-10-23T14:43:44.122Z,100386.75
2022-10-23T14:46:16.344Z,100372.84
2022-10-23T14:48:46.144Z,100376.50
2022-10-23T14:51:26.506Z,100378.41
2022-10-23T14:54:00.728Z,100378.50
2022-10-23T14:56:30.919Z,100370.84
2022-10-23T14:59:03.054Z,100366.63
2022-10-23T15:01:37.774Z,100372.75
2022-10-23T15:04:05.233Z,100367.63
2022-10-23T15:06:34.038Z,100353.72
2022-10-23T15:09:02.911Z,100344.16
2022-10-23T15:11:30.930Z,100345.03
2022-10-23T15:14:00.790Z,100340.72
2022-10-23T15:16:28.099Z,100334.66
2022-10-23T15:18:55.092Z,100326.13
2022-10-23T15:21:22.163Z,100334.84
2022-10-23T15:23:49.254Z,100322.78
2022-10-23T15:26:23.165Z,100335.78
2022-10-23T15:28:55.293Z,100320.09
2022-10-23T15:31:37.662Z,100323.69
2022-10-23T15:34:05.719Z,100317.69
2022-10-23T15:36:33.201Z,100303.06
2022-10-23T15:39:00.937Z,100303.03
2022-10-23T15:41:33.821Z,100301.34
2022-10-23T15:44:03.090Z,100306.59
2022-10-23T15:46:31.013Z,100295.28
2022-10-23T15:48:58.128Z,100298.84
2022-10-23T15:51:25.283Z,100297.13
2022-10-23T15:53:52.490Z,100298.88
2022-10-23T15:56:19.591Z,100288.56
2022-10-23T15:58:46.881Z,100291.19
2022-10-23T16:01:14.104Z,100271.19
2022-10-23T16:03:41.609Z,100276.41
2022-10-23T16:06:12.232Z,100259.06
2022-10-23T16:08:39.777Z,100257.28
2022-10-23T16:11:16.481Z,100250.31
2022-10-23T16:13:44.054Z,100252.03
2022-10-23T16:16:12.190Z,100255.56
2022-10-23T16:18:40.049Z,100259.94
2022-10-23T16:21:07.915Z,100258.22
2022-10-23T16:23:34.950Z,100249.63
2022-10-23T16:26:05.560Z,100263.50
2022-10-23T16:28:33.064Z,100266.09
2022-10-23T16:31:00.528Z,100253.13
2022-10-23T16:33:27.713Z,100263.53
2022-10-23T16:35:54.860Z,100259.22
2022-10-23T16:38:22.148Z,100255.66
2022-10-23T16:40:53.604Z,100247.91
2022-10-23T16:43:20.770Z,100231.44
2022-10-23T16:45:47.805Z,100240.94
2022-10-23T16:48:14.956Z,100252.31
2022-10-23T16:50:42.048Z,100234.94
2022-10-23T16:53:09.147Z,100228.06
2022-10-23T16:55:40.321Z,100232.44
2022-10-23T16:58:07.342Z,100243.69
2022-10-23T17:00:35.231Z,100228.97
2022-10-23T17:03:04.358Z,100244.56
2022-10-23T17:05:34.913Z,100247.16
2022-10-23T17:08:01.995Z,100254.94
2022-10-23T17:10:29.025Z,100234.09
2022-10-23T17:12:56.033Z,100243.63
2022-10-23T17:15:23.832Z,100246.34
2022-10-23T17:17:50.975Z,100259.34
2022-10-23T17:20:18.046Z,100268.91
2022-10-23T17:22:45.069Z,100265.50
2022-10-23T17:25:12.518Z,100241.25
2022-10-23T17:27:39.598Z,100242.13
2022-10-23T17:30:10.440Z,100258.59
2022-10-23T17:32:39.546Z,100237.84
2022-10-23T17:35:07.102Z,100239.56
2022-10-23T17:37:34.330Z,100235.22
2022-10-23T17:40:02.911Z,100246.56
2022-10-23T17:42:30.510Z,100251.78
2022-10-23T17:44:57.620Z,100257.00
2022-10-23T17:47:24.665Z,100246.56
2022-10-23T17:49:51.702Z,100246.56
2022-10-23T17:52:18.796Z,100252.63
2022-10-23T17:54:45.836Z,100243.97
2022-10-23T17:57:12.932Z,100248.31
2022-10-23T17:59:40.192Z,100246.56
2022-10-23T18:02:07.357Z,100243.97
2022-10-23T18:04:34.574Z,100224.00
2022-10-23T18:07:04.453Z,100230.88
2022-10-23T18:09:34.641Z,100234.31
2022-10-23T18:12:04.849Z,100225.63
2022-10-23T18:14:37.275Z,100216.06
2022-10-23T18:17:04.666Z,100225.59
2022-10-23T18:19:32.073Z,100221.19
2022-10-23T18:21:59.272Z,100229.88
2022-10-23T18:24:26.627Z,100228.97
2022-10-23T18:26:53.625Z,100229.78
2022-10-23T18:29:21.265Z,100226.28
2022-10-23T18:31:48.964Z,100214.13
2022-10-23T18:34:17.526Z,100226.22
2022-10-23T18:36:44.983Z,100223.59
2022-10-23T18:39:15.291Z,100213.16
2022-10-23T18:41:44.491Z,100201.00
2022-10-23T18:44:15.418Z,100210.56
2022-10-23T18:46:42.823Z,100205.31
2022-10-23T18:49:10.681Z,100207.03
2022-10-23T18:51:37.988Z,100206.13
2022-10-23T18:54:08.742Z,100201.72
2022-10-23T18:56:36.036Z,100187.78
2022-10-23T18:59:05.260Z,100204.31
2022-10-23T19:01:34.286Z,100200.84
2022-10-23T19:04:04.279Z,100203.44
2022-10-23T19:06:35.467Z,100198.16
2022-10-23T19:09:06.118Z,100194.72
2022-10-23T19:11:33.149Z,100188.66
2022-10-23T19:14:02.932Z,100167.78
2022-10-23T19:16:38.310Z,100150.41
2022-10-23T19:19:14.064Z,100153.94
2022-10-23T19:21:42.197Z,100182.72
2022-10-23T19:24:15.273Z,100160.16
2022-10-23T19:26:43.568Z,100167.25
2022-10-23T19:29:15.555Z,100172.50
2022-10-23T19:31:48.731Z,100175.19
2022-10-23T19:34:22.510Z,100177.84
2022-10-23T19:36:50.857Z,100171.69
2022-10-23T19:39:18.728Z,100173.34
2022-10-23T19:41:46.150Z,100176.81
2022-10-23T19:44:14.491Z,100190.72
2022-10-23T19:46:41.619Z,100171.63
2022-10-23T19:49:09.929Z,100184.75
2022-10-23T19:51:37.606Z,100191.81
2022-10-23T19:54:04.916Z,100213.53
2022-10-23T19:56:31.935Z,100211.88
2022-10-23T19:58:58.996Z,100227.53
2022-10-23T20:01:26.145Z,100219.78
2022-10-23T20:03:55.372Z,100219.00
2022-10-23T20:06:25.812Z,100224.19
2022-10-23T20:08:53.337Z,100228.66
2022-10-23T20:11:23.889Z,100235.66
2022-10-23T20:13:51.849Z,100227.88
2022-10-23T20:16:24.816Z,100240.97
2022-10-23T20:18:52.118Z,100241.00
2022-10-23T20:21:19.453Z,100246.25
2022-10-23T20:23:47.074Z,100250.56
2022-10-23T20:26:16.836Z,100263.66
2022-10-23T20:28:51.064Z,100262.81
2022-10-23T20:31:19.997Z,100269.78
2022-10-23T20:33:47.447Z,100276.75
2022-10-23T20:36:27.749Z,100268.06
2022-10-23T20:38:55.869Z,100288.09
2022-10-23T20:41:25.995Z,100283.72
2022-10-23T20:43:55.403Z,100283.81
2022-10-23T20:46:25.418Z,100276.88
2022-10-23T20:48:53.194Z,100297.78
2022-10-23T20:51:22.170Z,100281.34
2022-10-23T20:53:51.370Z,100295.28
2022-10-23T20:56:31.832Z,100294.50
2022-10-23T20:59:13.424Z,100298.84
2022-10-23T21:01:42.799Z,100294.53
2022-10-23T21:04:14.184Z,100301.47
2022-10-23T21:07:04.517Z,100302.38
2022-10-23T21:09:32.951Z,100302.38
2022-10-23T21:12:00.720Z,100303.25
2022-10-23T21:14:28.611Z,100285.03
2022-10-23T21:16:55.599Z,100309.38
2022-10-23T21:19:22.602Z,100304.16
2022-10-23T21:21:49.655Z,100307.66
2022-10-23T21:24:17.350Z,100317.22
2022-10-23T21:26:45.179Z,100312.03
2022-10-23T21:29:20.850Z,100296.34
2022-10-23T21:31:52.747Z,100294.66
2022-10-23T21:34:19.868Z,100274.75
2022-10-23T21:39:34.402Z,100299.03
2022-10-23T21:42:02.956Z,100295.56
2022-10-23T21:44:30.738Z,100297.28
2022-10-23T21:46:57.736Z,100286.88
2022-10-23T21:49:24.722Z,100291.22
2022-10-23T21:51:51.754Z,100301.69
2022-10-23T21:54:18.764Z,100309.44
2022-10-23T21:56:48.316Z,100304.25
2022-10-23T21:59:18.356Z,100305.97
2022-10-23T22:01:47.009Z,100293.91
2022-10-23T22:04:17.194Z,100309.50
2022-10-23T22:06:45.660Z,100308.59
2022-10-23T22:09:16.294Z,100318.13
2022-10-23T22:11:43.321Z,100305.16
2022-10-23T22:14:10.619Z,100316.41
2022-10-23T22:16:37.673Z,100322.50
2022-10-23T22:19:04.794Z,100310.31
2022-10-23T22:21:32.145Z,100301.63
2022-10-23T22:24:01.446Z,100305.97
2022-10-23T22:26:31.843Z,100304.25
2022-10-23T22:29:01.856Z,100301.69
2022-10-23T22:31:31.853Z,100304.25
2022-10-23T22:34:13.060Z,100292.09
2022-10-23T22:36:48.771Z,100297.31
2022-10-23T22:39:15.975Z,100291.25
2022-10-23T22:41:43.596Z,100298.16
2022-10-23T22:44:11.941Z,100293.81
2022-10-23T22:46:38.942Z,100294.69
2022-10-23T22:51:39.637Z,100288.63
2022-10-23T22:54:07.149Z,100293.81
2022-10-23T22:56:34.855Z,100284.28
2022-10-23T22:59:02.965Z,100283.41
2022-10-23T23:01:32.115Z,100279.91
2022-10-23T23:04:08.880Z,100284.28
2022-10-23T23:06:47.898Z,100273.00
2022-10-23T23:09:17.928Z,100277.34
2022-10-23T23:11:51.584Z,100272.16
2022-10-23T23:14:23.487Z,100272.16
2022-10-23T23:16:54.461Z,100273.88
2022-10-23T23:19:22.927Z,100267.81
2022-10-23T23:21:50.650Z,100270.44
2022-10-23T23:24:17.732Z,100256.56
2022-10-23T23:26:44.728Z,100258.31
2022-10-23T23:29:12.293Z,100254.00
2022-10-23T23:31:39.444Z,100244.50
2022-10-23T23:34:06.496Z,100248.00
2022-10-23T23:36:36.761Z,100244.53
2022-10-23T23:41:37.682Z,100241.13
2022-10-23T23:44:04.881Z,100242.84
2022-10-23T23:46:32.047Z,100235.06
2022-10-23T23:48:59.046Z,100235.06
2022-10-23T23:51:26.233Z,100217.69
2022-10-23T23:53:53.506Z,100232.41
2022-10-23T23:56:21.337Z,100228.03
2022-10-23T23:58:48.563Z,100230.59
